Time;durP1;ratioP1;P1;durP2;ratioP2;P2;SDS_P1;SDS_P2;PMS_P1;PMS_P2;Temp;Humidity;BMP_temperature;BMP_pressure;BME280_temperature;BME280_humidity;BME280_pressure;Samples;Min_cycle;Max_cycle;Signal;HPM_P1;HPM_P2
2023/01/12 00:00:49;;;;;;;3.30;2.20;;;6.80;99.90;;;;;;5017220;28;20283;-69
2023/01/12 00:03:15;;;;;;;0.30;0.30;;;6.70;99.90;;;;;;5017037;28;20187;-69
2023/01/12 00:05:40;;;;;;;1.30;1.23;;;6.80;99.90;;;;;;5017189;28;20203;-68
2023/01/12 00:08:06;;;;;;;0.40;0.40;;;6.70;99.90;;;;;;5017462;28;20223;-68
2023/01/12 00:10:32;;;;;;;0.87;0.87;;;6.60;99.90;;;;;;5016977;28;20260;-68
2023/01/12 00:12:57;;;;;;;0.40;0.40;;;6.40;99.90;;;;;;5017580;28;20259;-68
2023/01/12 00:16:33;;;;;;;0.37;0.37;;;6.20;99.90;;;;;;5016769;28;20180;-68
2023/01/12 00:18:20;;;;;;;0.30;0.30;;;6.20;99.90;;;;;;5017065;28;20172;-68
2023/01/12 00:20:47;;;;;;;0.30;0.30;;;6.30;99.90;;;;;;5017273;28;20186;-68
2023/01/12 00:23:12;;;;;;;0.30;0.30;;;6.30;99.90;;;;;;5016869;28;20181;-68
2023/01/12 00:25:38;;;;;;;0.87;0.83;;;6.40;99.90;;;;;;5016664;28;20261;-68
2023/01/12 00:28:04;;;;;;;0.30;0.30;;;6.30;99.90;;;;;;5016651;28;20169;-68
2023/01/12 00:30:29;;;;;;;0.40;0.40;;;6.40;99.90;;;;;;5016657;28;20204;-69
2023/01/12 00:32:55;;;;;;;0.30;0.30;;;6.30;99.90;;;;;;5016602;28;20210;-68
2023/01/12 00:35:20;;;;;;;0.30;0.30;;;6.30;99.90;;;;;;5016403;28;20275;-68
2023/01/12 00:37:46;;;;;;;1.57;1.57;;;6.30;99.90;;;;;;5017091;28;20615;-68
2023/01/12 00:40:12;;;;;;;0.40;0.40;;;6.30;99.90;;;;;;5017091;28;20601;-69
2023/01/12 00:45:21;;;;;;;6.28;2.80;;;6.40;99.90;;;;;;5016397;28;20266;-68
2023/01/12 00:47:47;;;;;;;0.40;0.40;;;6.30;99.90;;;;;;5016644;28;20177;-68
2023/01/12 00:50:13;;;;;;;0.30;0.30;;;6.30;99.90;;;;;;5016854;28;20567;-69
2023/01/12 00:52:39;;;;;;;0.95;0.95;;;6.20;99.90;;;;;;5016166;28;20259;-69
2023/01/12 00:55:05;;;;;;;0.30;0.30;;;6.30;99.90;;;;;;5016047;28;20345;-69
2023/01/12 00:57:31;;;;;;;0.40;0.40;;;6.30;99.90;;;;;;5016232;28;20660;-68
2023/01/12 00:59:58;;;;;;;0.50;0.50;;;6.30;99.90;;;;;;5015986;28;20178;-68
2023/01/12 01:02:25;;;;;;;0.75;0.75;;;6.30;99.90;;;;;;5016473;28;20171;-69
2023/01/12 01:04:50;;;;;;;0.40;0.40;;;6.50;99.90;;;;;;5014411;28;20603;-68
2023/01/12 01:07:17;;;;;;;0.50;0.50;;;6.40;99.90;;;;;;5015925;28;20172;-68
2023/01/12 01:09:43;;;;;;;0.82;0.82;;;6.40;99.90;;;;;;5014721;28;20177;-68
2023/01/12 01:12:09;;;;;;;0.30;0.30;;;6.40;99.90;;;;;;5016077;28;20180;-68
2023/01/12 01:14:34;;;;;;;0.63;0.63;;;6.30;99.90;;;;;;5016106;28;20750;-68
2023/01/12 01:17:00;;;;;;;0.50;0.50;;;6.30;99.90;;;;;;5016184;28;20822;-69
2023/01/12 01:19:26;;;;;;;0.40;0.40;;;6.30;99.90;;;;;;5016236;28;20440;-68
2023/01/12 01:21:51;;;;;;;0.33;0.33;;;6.20;99.90;;;;;;5016383;28;20179;-68
2023/01/12 01:24:17;;;;;;;13.37;1.50;;;6.40;99.90;;;;;;5015677;28;20569;-68
2023/01/12 01:26:43;;;;;;;0.30;0.30;;;6.50;99.90;;;;;;5015743;28;20737;-69
2023/01/12 01:29:09;;;;;;;0.30;0.30;;;6.40;99.90;;;;;;5015798;28;20277;-67
2023/01/12 01:31:35;;;;;;;0.40;0.40;;;6.20;99.90;;;;;;5015244;28;20575;-68
2023/01/12 01:34:01;;;;;;;0.40;0.40;;;6.20;99.90;;;;;;5015962;28;20308;-68
2023/01/12 01:36:27;;;;;;;0.30;0.30;;;6.20;99.90;;;;;;5015990;28;20445;-68
2023/01/12 01:38:52;;;;;;;0.30;0.30;;;6.00;99.90;;;;;;5015432;28;20409;-68
2023/01/12 01:41:24;;;;;;;0.83;0.83;;;6.10;99.90;;;;;;5015521;28;20901;-68
2023/01/12 01:44:04;;;;;;;0.60;0.60;;;5.90;99.90;;;;;;5015289;28;20200;-67
2023/01/12 01:46:36;;;;;;;0.30;0.30;;;6.00;99.90;;;;;;5015766;28;20676;-68
2023/01/12 01:49:30;;;;;;;0.35;0.35;;;6.00;99.90;;;;;;5015368;28;20184;-68
2023/01/12 01:52:02;;;;;;;0.40;0.40;;;6.00;99.90;;;;;;5013189;28;20175;-69
2023/01/12 01:54:32;;;;;;;0.30;0.30;;;5.90;99.90;;;;;;5013607;28;20194;-68
2023/01/12 01:56:59;;;;;;;0.30;0.30;;;5.90;99.90;;;;;;5015000;28;20558;-68
2023/01/12 01:59:31;;;;;;;2.25;2.15;;;5.90;99.90;;;;;;5015414;28;20209;-69
2023/01/12 02:01:58;;;;;;;0.30;0.30;;;5.90;99.90;;;;;;5015138;28;20175;-68
2023/01/12 02:04:24;;;;;;;1.52;1.52;;;5.90;99.90;;;;;;5014649;28;20195;-68
2023/01/12 02:06:52;;;;;;;0.30;0.30;;;5.80;99.90;;;;;;5014656;28;20206;-67
2023/01/12 02:09:25;;;;;;;0.30;0.30;;;5.70;99.90;;;;;;5015347;28;20180;-68
2023/01/12 02:17:33;;;;;;;0.85;0.85;;;5.90;99.90;;;;;;5014634;28;20175;-69
2023/01/12 02:20:16;;;;;;;0.40;0.40;;;6.00;99.90;;;;;;5015134;28;20196;-69
2023/01/12 02:23:06;;;;;;;0.80;0.80;;;6.00;99.90;;;;;;5013470;28;20180;-68
2023/01/12 02:25:47;;;;;;;0.77;0.77;;;6.10;99.90;;;;;;5013422;28;20203;-68
2023/01/12 02:28:56;;;;;;;0.30;0.30;;;6.10;99.90;;;;;;5014748;28;20161;-69
2023/01/12 02:31:40;;;;;;;0.40;0.40;;;6.00;99.90;;;;;;5014730;28;20175;-68
2023/01/12 02:34:35;;;;;;;0.40;0.40;;;6.00;99.90;;;;;;5014183;28;20204;-68
2023/01/12 02:37:20;;;;;;;0.30;0.30;;;6.00;99.90;;;;;;5014589;28;20534;-68
2023/01/12 02:40:19;;;;;;;0.40;0.40;;;6.00;99.90;;;;;;5014660;28;20219;-68
2023/01/12 02:42:59;;;;;;;0.35;0.35;;;6.00;99.90;;;;;;5014481;28;20254;-68
2023/01/12 02:45:53;;;;;;;0.60;0.50;;;6.00;99.90;;;;;;5014137;28;20226;-68
2023/01/12 02:48:27;;;;;;;0.30;0.30;;;5.90;99.90;;;;;;5014179;28;20164;-69
2023/01/12 02:50:56;;;;;;;2.25;1.25;;;5.90;99.90;;;;;;5014541;28;20609;-68
2023/01/12 02:53:49;;;;;;;0.40;0.40;;;6.00;99.90;;;;;;5014239;28;20300;-68
2023/01/12 02:56:33;;;;;;;3.63;2.45;;;5.90;99.90;;;;;;5013741;28;20222;-68
2023/01/12 02:59:04;;;;;;;0.30;0.30;;;5.80;99.90;;;;;;5014212;28;20173;-67
2023/01/12 03:01:32;;;;;;;0.40;0.40;;;5.80;99.90;;;;;;5014348;28;20255;-69
2023/01/12 03:04:00;;;;;;;0.30;0.30;;;5.70;99.90;;;;;;5014165;28;20219;-68
2023/01/12 03:06:39;;;;;;;1.48;1.48;;;5.70;99.90;;;;;;5013456;28;20655;-68
2023/01/12 03:09:04;;;;;;;0.30;0.30;;;5.60;99.90;;;;;;5014341;28;20194;-68
2023/01/12 03:11:30;;;;;;;0.40;0.40;;;5.50;99.90;;;;;;5014335;28;20578;-68
2023/01/12 03:14:00;;;;;;;0.30;0.30;;;5.60;99.90;;;;;;5013986;28;20192;-68
2023/01/12 03:16:31;;;;;;;0.40;0.40;;;5.50;99.90;;;;;;5013949;28;20465;-67
2023/01/12 03:19:08;;;;;;;0.40;0.40;;;5.60;99.90;;;;;;5013971;28;20537;-68
2023/01/12 03:22:03;;;;;;;0.77;0.77;;;5.70;99.90;;;;;;5013654;28;20167;-67
2023/01/12 03:24:34;;;;;;;0.30;0.30;;;5.90;99.90;;;;;;5012954;28;20712;-68
2023/01/12 03:27:14;;;;;;;0.30;0.30;;;5.90;99.90;;;;;;5014302;28;20636;-68
2023/01/12 03:29:45;;;;;;;0.38;0.38;;;5.90;99.90;;;;;;5018055;28;20329;-68
2023/01/12 03:32:10;;;;;;;0.30;0.30;;;5.80;99.90;;;;;;5018271;28;20163;-67
2023/01/12 03:34:37;;;;;;;0.40;0.40;;;5.90;99.90;;;;;;5017683;28;20203;-68
2023/01/12 03:37:27;;;;;;;0.40;0.40;;;6.00;99.90;;;;;;5017597;28;20587;-69
2023/01/12 03:40:15;;;;;;;0.60;0.60;;;6.00;99.90;;;;;;5018139;28;20262;-68
2023/01/12 03:42:54;;;;;;;0.30;0.30;;;5.90;99.90;;;;;;5016290;28;20173;-68
2023/01/12 03:45:29;;;;;;;0.32;0.32;;;5.90;99.90;;;;;;5017252;28;20257;-68
2023/01/12 03:48:08;;;;;;;0.40;0.40;;;5.80;99.90;;;;;;5017645;28;20171;-68
2023/01/12 03:50:42;;;;;;;0.40;0.40;;;5.90;99.90;;;;;;5017714;28;20573;-69
2023/01/12 03:53:09;;;;;;;0.30;0.30;;;5.70;99.90;;;;;;5017620;28;20255;-68
2023/01/12 03:55:36;;;;;;;0.30;0.30;;;5.60;99.90;;;;;;5017181;28;20262;-68
2023/01/12 03:58:03;;;;;;;0.30;0.30;;;5.60;99.90;;;;;;5017222;28;20530;-68
2023/01/12 04:00:29;;;;;;;0.30;0.30;;;5.50;99.90;;;;;;5017288;28;20179;-68
2023/01/12 04:03:12;;;;;;;0.40;0.40;;;5.50;99.90;;;;;;5016061;28;20656;-68
2023/01/12 04:05:40;;;;;;;0.40;0.40;;;5.50;99.90;;;;;;5017473;28;20531;-68
2023/01/12 04:08:07;;;;;;;0.30;0.30;;;5.60;99.90;;;;;;5016052;28;20209;-67
2023/01/12 04:10:32;;;;;;;0.30;0.30;;;5.70;99.90;;;;;;5017582;28;20184;-68
2023/01/12 04:12:58;;;;;;;0.30;0.30;;;5.70;99.90;;;;;;5017013;28;20175;-68
2023/01/12 04:15:24;;;;;;;0.40;0.40;;;5.50;99.90;;;;;;5016956;28;20577;-68
2023/01/12 04:17:49;;;;;;;0.70;0.70;;;5.60;99.90;;;;;;5017146;28;20171;-68
2023/01/12 04:20:15;;;;;;;0.57;0.57;;;5.80;99.90;;;;;;5017275;28;20222;-68
2023/01/12 04:22:42;;;;;;;0.40;0.40;;;5.80;99.90;;;;;;5016999;28;20251;-68
2023/01/12 04:25:09;;;;;;;0.50;0.50;;;6.00;99.90;;;;;;5016084;28;20461;-68
2023/01/12 04:27:35;;;;;;;2.97;0.60;;;6.10;99.90;;;;;;5016559;28;20183;-68
2023/01/12 04:30:00;;;;;;;0.30;0.30;;;6.00;99.90;;;;;;5016887;28;20250;-68
2023/01/12 04:32:26;;;;;;;2.73;1.27;;;6.00;99.90;;;;;;5016937;28;20197;-68
2023/01/12 04:34:51;;;;;;;0.30;0.30;;;6.00;99.90;;;;;;5016465;28;20752;-68
2023/01/12 04:37:17;;;;;;;0.80;0.80;;;6.10;99.90;;;;;;5017015;28;20223;-68
2023/01/12 04:39:43;;;;;;;0.40;0.40;;;6.20;99.90;;;;;;5016139;28;20238;-68
2023/01/12 04:42:59;;;;;;;0.50;0.50;;;6.20;99.90;;;;;;5016455;28;20889;-69
2023/01/12 04:44:54;;;;;;;1.48;1.38;;;6.20;99.90;;;;;;5015946;28;20235;-68
2023/01/12 04:47:20;;;;;;;0.40;0.40;;;6.30;99.90;;;;;;5016776;28;20200;-67
2023/01/12 04:49:45;;;;;;;0.30;0.30;;;6.20;99.90;;;;;;5016851;28;20248;-68
2023/01/12 04:52:11;;;;;;;5.90;0.53;;;6.10;99.90;;;;;;5016874;28;20172;-68
2023/01/12 04:54:36;;;;;;;0.40;0.40;;;6.10;99.90;;;;;;5016076;28;20242;-68
2023/01/12 04:57:02;;;;;;;0.40;0.40;;;6.30;99.90;;;;;;5016247;28;20563;-68
2023/01/12 04:59:28;;;;;;;0.60;0.60;;;6.40;99.90;;;;;;5016678;28;20174;-68
2023/01/12 05:01:54;;;;;;;0.40;0.40;;;6.50;99.90;;;;;;5016373;28;20210;-69
2023/01/12 05:04:19;;;;;;;0.30;0.30;;;6.50;99.90;;;;;;5015957;28;20243;-68
2023/01/12 05:06:45;;;;;;;1.90;0.90;;;6.50;99.90;;;;;;5014545;28;20282;-68
2023/01/12 05:11:55;;;;;;;0.30;0.30;;;6.50;99.90;;;;;;5015831;28;20191;-68
2023/01/12 05:14:20;;;;;;;0.37;0.37;;;6.40;99.90;;;;;;5015564;28;20479;-68
2023/01/12 05:16:46;;;;;;;0.57;0.57;;;6.50;99.90;;;;;;5016297;28;20178;-68
2023/01/12 05:19:11;;;;;;;0.30;0.30;;;6.50;99.90;;;;;;5015658;28;20175;-68
2023/01/12 05:21:37;;;;;;;0.83;0.83;;;6.40;99.90;;;;;;5015987;28;20617;-69
2023/01/12 05:24:03;;;;;;;0.43;0.43;;;6.40;99.90;;;;;;5015653;28;20189;-67
2023/01/12 05:26:29;;;;;;;0.40;0.40;;;6.40;99.90;;;;;;5015843;28;20454;-68
2023/01/12 05:28:54;;;;;;;0.30;0.30;;;6.40;99.90;;;;;;5015920;28;20182;-69
2023/01/12 05:31:20;;;;;;;1.43;0.80;;;6.40;99.90;;;;;;5016011;28;20175;-68
2023/01/12 05:33:47;;;;;;;0.38;0.38;;;6.40;99.90;;;;;;5015818;28;20195;-67
2023/01/12 05:36:15;;;;;;;0.40;0.40;;;6.50;99.90;;;;;;5015227;28;20217;-69
2023/01/12 05:38:41;;;;;;;0.30;0.30;;;6.50;99.90;;;;;;5016633;28;20255;-68
2023/01/12 05:41:11;;;;;;;2.43;1.10;;;6.40;99.90;;;;;;5013986;28;20255;-68
2023/01/12 05:43:49;;;;;;;0.30;0.30;;;6.30;99.90;;;;;;5012811;28;20253;-68
2023/01/12 05:46:23;;;;;;;0.40;0.40;;;6.40;99.90;;;;;;5014625;28;20201;-68
2023/01/12 05:48:49;;;;;;;2.78;1.35;;;6.30;99.90;;;;;;5015242;28;20164;-68
2023/01/12 05:51:16;;;;;;;0.30;0.30;;;6.40;99.90;;;;;;5014616;28;20229;-69
2023/01/12 05:53:42;;;;;;;0.40;0.40;;;6.40;99.90;;;;;;5015385;28;20197;-67
2023/01/12 05:56:19;;;;;;;0.63;0.63;;;6.40;99.90;;;;;;5013704;28;20197;-68
2023/01/12 05:58:50;;;;;;;0.30;0.30;;;6.40;99.90;;;;;;5014984;28;20174;-68
2023/01/12 06:01:15;;;;;;;0.50;0.50;;;6.30;99.90;;;;;;5015524;28;20262;-68
2023/01/12 06:03:41;;;;;;;0.77;0.77;;;6.30;99.90;;;;;;5015109;28;20291;-69
2023/01/12 06:06:07;;;;;;;0.40;0.40;;;6.30;99.90;;;;;;5015004;28;20214;-68
2023/01/12 06:08:32;;;;;;;0.40;0.40;;;6.30;99.90;;;;;;5014821;28;20534;-68
2023/01/12 06:11:01;;;;;;;0.30;0.30;;;6.30;99.90;;;;;;5015310;28;20176;-68
2023/01/12 06:16:11;;;;;;;0.50;0.50;;;6.50;99.90;;;;;;5014950;28;20188;-69
2023/01/12 06:18:39;;;;;;;0.30;0.30;;;6.40;99.90;;;;;;5014941;28;20174;-68
2023/01/12 06:21:06;;;;;;;0.80;0.80;;;6.40;99.90;;;;;;5014977;28;20253;-68
2023/01/12 06:23:32;;;;;;;0.40;0.40;;;6.40;99.90;;;;;;5014959;28;20683;-68
2023/01/12 06:26:03;;;;;;;26.17;1.30;;;6.40;99.90;;;;;;5013481;28;20806;-70
2023/01/12 06:28:29;;;;;;;0.30;0.30;;;6.50;99.90;;;;;;5013673;28;20168;-70
2023/01/12 06:30:59;;;;;;;0.37;0.37;;;6.50;99.90;;;;;;5014769;28;20645;-70
2023/01/12 06:33:25;;;;;;;0.57;0.57;;;6.50;99.90;;;;;;5014302;28;20203;-70
2023/01/12 06:35:52;;;;;;;1.35;1.35;;;6.50;99.90;;;;;;5012685;28;20641;-70
2023/01/12 06:38:18;;;;;;;0.35;0.35;;;6.50;99.90;;;;;;5013684;28;20257;-70
2023/01/12 06:40:44;;;;;;;0.30;0.30;;;6.40;99.90;;;;;;5014683;28;20263;-70
2023/01/12 06:43:10;;;;;;;0.50;0.50;;;6.40;99.90;;;;;;5014273;28;20211;-69
2023/01/12 06:45:35;;;;;;;0.30;0.30;;;6.40;99.90;;;;;;5014223;28;20200;-70
2023/01/12 06:48:01;;;;;;;0.30;0.30;;;6.50;99.90;;;;;;5014502;28;20183;-70
2023/01/12 06:50:27;;;;;;;0.40;0.40;;;6.50;99.90;;;;;;4996654;28;20177;-70
2023/01/12 06:52:54;;;;;;;0.40;0.40;;;6.50;99.90;;;;;;5012519;28;20942;-70
2023/01/12 06:55:20;;;;;;;0.30;0.30;;;6.40;99.90;;;;;;5012520;28;20437;-69
2023/01/12 06:57:45;;;;;;;1.07;1.07;;;6.30;99.90;;;;;;5012883;28;20270;-70
2023/01/12 07:00:12;;;;;;;0.30;0.30;;;6.40;99.90;;;;;;5014242;28;20186;-70
2023/01/12 07:02:38;;;;;;;0.32;0.32;;;6.20;99.90;;;;;;5014012;28;20179;-70
2023/01/12 07:05:04;;;;;;;0.30;0.30;;;6.20;99.90;;;;;;5013756;28;20566;-70
2023/01/12 07:07:29;;;;;;;0.30;0.30;;;6.30;99.90;;;;;;5014497;28;20253;-70
2023/01/12 07:09:55;;;;;;;0.40;0.40;;;6.30;99.90;;;;;;5014325;28;20661;-70
2023/01/12 07:12:21;;;;;;;0.30;0.30;;;6.40;99.90;;;;;;5014050;28;20164;-70
2023/01/12 07:14:46;;;;;;;0.50;0.50;;;6.40;99.90;;;;;;5013821;28;20207;-70
2023/01/12 07:17:12;;;;;;;0.30;0.30;;;6.50;99.90;;;;;;5013724;28;20178;-70
2023/01/12 07:19:39;;;;;;;0.40;0.40;;;6.50;99.90;;;;;;5014309;28;20580;-70
2023/01/12 07:22:04;;;;;;;0.40;0.40;;;6.50;99.90;;;;;;5014348;28;20177;-70
2023/01/12 07:24:30;;;;;;;0.30;0.30;;;6.50;99.90;;;;;;5013393;28;20196;-70
2023/01/12 07:26:57;;;;;;;0.40;0.40;;;6.60;99.90;;;;;;5013751;28;20266;-70
2023/01/12 07:29:23;;;;;;;0.30;0.30;;;6.50;99.90;;;;;;5013881;28;20638;-70
2023/01/12 07:31:49;;;;;;;0.30;0.30;;;6.40;99.90;;;;;;5011831;28;20172;-71
2023/01/12 07:34:15;;;;;;;0.30;0.30;;;6.60;99.90;;;;;;5013374;28;20649;-71
2023/01/12 07:36:41;;;;;;;14.60;2.00;;;6.70;99.90;;;;;;5014192;28;20825;-70
2023/01/12 07:39:08;;;;;;;0.40;0.40;;;6.70;99.90;;;;;;5013215;28;20408;-68
2023/01/12 07:44:18;;;;;;;0.40;0.40;;;6.90;99.90;;;;;;5011916;28;20208;-69
2023/01/12 07:46:43;;;;;;;0.50;0.50;;;6.90;99.90;;;;;;5012867;28;20204;-70
2023/01/12 07:49:09;;;;;;;0.30;0.30;;;6.90;99.90;;;;;;5013634;28;20175;-71
2023/01/12 07:51:35;;;;;;;0.40;0.40;;;7.00;99.90;;;;;;5013622;28;20408;-71
2023/01/12 07:54:00;;;;;;;0.30;0.30;;;7.00;99.90;;;;;;5012065;28;20293;-70
2023/01/12 07:56:26;;;;;;;0.30;0.30;;;7.10;99.80;;;;;;5012122;28;20192;-69
2023/01/12 07:58:52;;;;;;;0.30;0.30;;;7.10;99.90;;;;;;5013570;28;20209;-70
2023/01/12 08:01:17;;;;;;;0.30;0.30;;;6.80;99.80;;;;;;5013538;28;20173;-68
2023/01/12 08:03:43;;;;;;;0.30;0.30;;;6.90;99.90;;;;;;5013406;28;20277;-69
2023/01/12 08:06:09;;;;;;;0.40;0.40;;;6.90;99.80;;;;;;5013037;28;20200;-68
2023/01/12 08:08:35;;;;;;;0.30;0.30;;;7.00;99.70;;;;;;5013343;28;20183;-69
2023/01/12 08:11:03;;;;;;;0.40;0.40;;;7.00;99.30;;;;;;5013331;28;20650;-69
2023/01/12 08:13:29;;;;;;;0.60;0.60;;;7.00;99.40;;;;;;5014531;28;20184;-71
2023/01/12 08:15:55;;;;;;;0.30;0.30;;;7.00;99.40;;;;;;5015650;28;20182;-68
2023/01/12 08:18:29;;;;;;;0.40;0.40;;;7.00;99.30;;;;;;5017074;28;20182;-72
2023/01/12 08:20:59;;;;;;;0.73;0.70;;;7.10;99.10;;;;;;5016857;28;20228;-67
2023/01/12 08:23:34;;;;;;;1.20;1.20;;;7.10;98.80;;;;;;5016965;28;20190;-70
2023/01/12 08:26:03;;;;;;;0.30;0.30;;;7.20;98.70;;;;;;5016692;28;20228;-71
2023/01/12 08:28:40;;;;;;;0.40;0.40;;;7.20;98.30;;;;;;5016915;28;20162;-70
2023/01/12 08:31:09;;;;;;;0.30;0.30;;;7.20;98.50;;;;;;5016825;28;20166;-71
2023/01/12 08:33:36;;;;;;;0.32;0.32;;;7.20;98.20;;;;;;5016518;28;20187;-69
2023/01/12 08:36:03;;;;;;;0.40;0.40;;;7.10;98.30;;;;;;5016441;28;20220;-69
2023/01/12 08:38:29;;;;;;;0.40;0.40;;;7.20;98.00;;;;;;5016650;28;20182;-67
2023/01/12 08:46:23;;;;;;;0.30;0.30;;;7.40;97.80;;;;;;5016204;28;20257;-68
2023/01/12 08:48:49;;;;;;;0.30;0.30;;;7.40;97.60;;;;;;5016406;28;20178;-71
2023/01/12 08:51:14;;;;;;;0.47;0.40;;;7.40;97.70;;;;;;5016388;28;20691;-70
2023/01/12 08:53:40;;;;;;;1.37;1.37;;;7.50;98.30;;;;;;5016256;28;20202;-71
2023/01/12 08:56:06;;;;;;;1.10;1.00;;;7.40;98.00;;;;;;5015850;28;20190;-69
2023/01/12 08:58:31;;;;;;;0.30;0.30;;;7.50;98.00;;;;;;5016372;28;20252;-70
2023/01/12 09:01:05;;;;;;;0.30;0.30;;;7.50;98.20;;;;;;5016173;28;20414;-71
2023/01/12 09:03:31;;;;;;;0.50;0.50;;;7.40;98.20;;;;;;5016243;28;20195;-68
2023/01/12 09:05:56;;;;;;;0.40;0.40;;;7.30;98.40;;;;;;5016063;28;20730;-69
2023/01/12 09:08:22;;;;;;;0.40;0.40;;;7.50;98.60;;;;;;5015876;28;20181;-69
2023/01/12 09:10:47;;;;;;;0.30;0.30;;;7.50;98.70;;;;;;5016133;28;20632;-68
2023/01/12 09:13:14;;;;;;;0.30;0.30;;;7.70;98.30;;;;;;5015850;28;20198;-70
2023/01/12 09:15:40;;;;;;;0.30;0.30;;;7.70;98.10;;;;;;5015705;28;20219;-68
2023/01/12 09:18:06;;;;;;;0.35;0.35;;;7.80;98.20;;;;;;5015889;28;20542;-69
2023/01/12 09:20:33;;;;;;;0.30;0.30;;;7.70;98.00;;;;;;5015886;28;20172;-71
2023/01/12 09:23:01;;;;;;;0.40;0.40;;;7.70;98.40;;;;;;5015795;28;20181;-72
2023/01/12 09:25:27;;;;;;;0.30;0.30;;;7.70;99.00;;;;;;5014544;28;20612;-71
2023/01/12 09:27:52;;;;;;;0.30;0.30;;;7.70;98.60;;;;;;5015784;28;20176;-69
2023/01/12 09:30:18;;;;;;;1.43;0.97;;;7.90;98.40;;;;;;5015592;28;20174;-70
2023/01/12 09:32:43;;;;;;;1.90;1.57;;;8.00;98.70;;;;;;5015573;28;20649;-69
2023/01/12 09:35:09;;;;;;;0.30;0.30;;;7.80;97.90;;;;;;5015231;28;20282;-68
2023/01/12 09:37:35;;;;;;;0.30;0.30;;;7.70;98.10;;;;;;5015540;28;20169;-70
2023/01/12 09:40:03;;;;;;;0.40;0.40;;;7.80;98.50;;;;;;5015314;28;20527;-70
2023/01/12 09:48:08;;;;;;;0.30;0.30;;;7.90;98.30;;;;;;5015595;28;20577;-68
2023/01/12 09:50:38;;;;;;;1.00;1.00;;;7.80;98.40;;;;;;5015342;28;20174;-67
2023/01/12 09:53:15;;;;;;;0.30;0.30;;;7.70;98.50;;;;;;5015210;28;20198;-71
2023/01/12 09:56:21;;;;;;;0.38;0.38;;;7.60;98.60;;;;;;5014843;28;20270;-71
2023/01/12 09:59:15;;;;;;;0.30;0.30;;;7.50;98.50;;;;;;5015258;28;20174;-67
2023/01/12 10:01:41;;;;;;;0.50;0.50;;;7.40;98.80;;;;;;5014721;28;20259;-69
2023/01/12 10:04:07;;;;;;;0.30;0.30;;;7.50;98.90;;;;;;5010698;28;20723;-71
2023/01/12 10:06:34;;;;;;;0.30;0.30;;;7.60;99.20;;;;;;5015425;28;20293;-68
2023/01/12 10:09:02;;;;;;;0.30;0.30;;;7.70;99.10;;;;;;5013069;28;20895;-69
2023/01/12 10:11:46;;;;;;;0.70;0.65;;;7.80;99.10;;;;;;5013436;28;20172;-67
2023/01/12 10:14:32;;;;;;;0.40;0.40;;;8.00;99.00;;;;;;5012801;28;20196;-70
2023/01/12 10:17:06;;;;;;;0.40;0.40;;;8.00;98.90;;;;;;5000894;28;20605;-69
2023/01/12 10:20:04;;;;;;;0.30;0.30;;;8.00;99.30;;;;;;5013773;28;20171;-70
2023/01/12 10:22:37;;;;;;;0.30;0.30;;;8.00;99.10;;;;;;5012009;28;20233;-71
2023/01/12 10:25:40;;;;;;;0.40;0.40;;;7.90;99.20;;;;;;5013543;28;20192;-67
2023/01/12 10:28:13;;;;;;;0.30;0.30;;;7.90;99.50;;;;;;5014880;28;20262;-72
2023/01/12 10:30:40;;;;;;;0.30;0.30;;;7.90;99.20;;;;;;5014946;28;20257;-72
2023/01/12 10:33:10;;;;;;;0.40;0.40;;;7.80;99.30;;;;;;5014755;28;20166;-68
2023/01/12 10:35:48;;;;;;;0.30;0.30;;;7.70;99.60;;;;;;5014351;28;20244;-71
2023/01/12 10:38:23;;;;;;;0.40;0.40;;;7.60;99.90;;;;;;5014732;28;20260;-71
2023/01/12 10:41:22;;;;;;;0.38;0.38;;;7.70;99.90;;;;;;5014687;28;20182;-69
2023/01/12 10:43:59;;;;;;;0.30;0.30;;;7.70;99.90;;;;;;5000337;28;20705;-70
2023/01/12 10:46:27;;;;;;;0.30;0.30;;;7.70;99.90;;;;;;5014550;28;20206;-68
2023/01/12 10:49:19;;;;;;;0.30;0.30;;;7.70;99.90;;;;;;5014266;28;20254;-70
2023/01/12 10:51:52;;;;;;;0.30;0.30;;;7.60;99.90;;;;;;5013471;28;20201;-69
2023/01/12 10:54:25;;;;;;;0.60;0.60;;;7.70;99.70;;;;;;5012637;28;20593;-68
2023/01/12 10:57:17;;;;;;;0.40;0.40;;;7.80;99.60;;;;;;5013621;28;20229;-69
2023/01/12 10:59:53;;;;;;;0.40;0.40;;;7.70;99.30;;;;;;5014322;28;20181;-69
2023/01/12 11:02:19;;;;;;;0.40;0.40;;;7.70;99.60;;;;;;5014590;28;20229;-71
2023/01/12 11:04:47;;;;;;;0.30;0.30;;;7.70;99.70;;;;;;5013707;28;20191;-69
2023/01/12 11:07:13;;;;;;;0.43;0.43;;;7.70;99.70;;;;;;5014511;28;20190;-70
2023/01/12 11:09:40;;;;;;;0.30;0.30;;;7.60;99.50;;;;;;5013988;28;20628;-68
2023/01/12 11:12:26;;;;;;;0.30;0.30;;;7.60;99.60;;;;;;5014083;28;20170;-69
2023/01/12 11:15:17;;;;;;;0.30;0.30;;;7.40;99.80;;;;;;5013201;28;20207;-70
2023/01/12 11:18:13;;;;;;;0.30;0.30;;;7.50;99.90;;;;;;5011237;28;20217;-71
2023/01/12 11:20:54;;;;;;;1.05;1.05;;;7.70;99.90;;;;;;5013841;28;20668;-69
2023/01/12 11:23:26;;;;;;;0.40;0.40;;;8.00;99.90;;;;;;5012770;28;20583;-72
2023/01/12 11:25:52;;;;;;;0.30;0.30;;;8.20;99.90;;;;;;5013464;28;20312;-71
2023/01/12 11:28:27;;;;;;;0.30;0.30;;;8.30;99.90;;;;;;5013783;28;20620;-69
2023/01/12 11:30:59;;;;;;;0.57;0.57;;;8.20;99.90;;;;;;5013937;28;20178;-68
2023/01/12 11:33:52;;;;;;;0.30;0.30;;;8.30;99.90;;;;;;5013858;28;20559;-69
2023/01/12 11:36:23;;;;;;;0.40;0.40;;;8.30;99.90;;;;;;5013637;28;20175;-70
2023/01/12 11:39:14;;;;;;;0.30;0.30;;;8.20;99.90;;;;;;5012455;28;20641;-67
2023/01/12 11:43:47;;;;;;;0.30;0.30;;;8.30;99.90;;;;;;5013790;28;20180;-68
2023/01/12 11:44:54;;;;;;;0.60;0.60;;;8.40;99.90;;;;;;5013263;28;20744;-69
2023/01/12 11:47:29;;;;;;;0.40;0.40;;;8.30;99.90;;;;;;5013732;28;20248;-69
2023/01/12 11:50:27;;;;;;;0.30;0.30;;;8.20;99.90;;;;;;5017596;28;20257;-69
2023/01/12 11:52:59;;;;;;;0.30;0.30;;;8.10;99.90;;;;;;5016367;28;20528;-68
2023/01/12 11:55:45;;;;;;;0.30;0.30;;;8.00;99.90;;;;;;5017007;28;20553;-68
2023/01/12 11:58:20;;;;;;;0.30;0.30;;;8.00;99.90;;;;;;5017606;28;20511;-70
2023/01/12 12:01:11;;;;;;;0.30;0.30;;;7.90;99.90;;;;;;5017680;28;20166;-69
2023/01/12 12:03:37;;;;;;;0.30;0.30;;;7.90;99.90;;;;;;5013110;28;20215;-68
2023/01/12 12:06:05;;;;;;;2.73;2.63;;;7.90;99.90;;;;;;5017054;28;20228;-67
2023/01/12 12:09:05;;;;;;;0.30;0.30;;;7.90;99.90;;;;;;5017390;28;20439;-69
2023/01/12 12:11:40;;;;;;;0.60;0.60;;;8.00;99.90;;;;;;5017808;28;20206;-68
2023/01/12 12:14:21;;;;;;;0.32;0.32;;;8.00;99.90;;;;;;5017303;28;20236;-72
2023/01/12 12:17:15;;;;;;;0.40;0.40;;;8.10;99.90;;;;;;5017362;28;20214;-68
2023/01/12 12:19:48;;;;;;;0.40;0.40;;;8.20;99.90;;;;;;5017603;28;20210;-71
2023/01/12 12:22:36;;;;;;;0.60;0.60;;;8.30;99.90;;;;;;5017494;28;20179;-70
2023/01/12 12:25:26;;;;;;;0.40;0.40;;;8.40;99.70;;;;;;5017160;28;20198;-69
2023/01/12 12:28:24;;;;;;;0.50;0.50;;;8.40;99.40;;;;;;5017339;28;20249;-69
2023/01/12 12:30:53;;;;;;;0.30;0.30;;;8.30;99.50;;;;;;5012422;28;20195;-71
2023/01/12 12:33:21;;;;;;;0.30;0.30;;;8.30;99.50;;;;;;5016886;28;20195;-72
2023/01/12 12:36:13;;;;;;;0.30;0.30;;;8.20;99.60;;;;;;5016785;28;20174;-72
2023/01/12 12:38:53;;;;;;;0.30;0.30;;;8.10;99.50;;;;;;5016845;28;20188;-71
2023/01/12 12:45:17;;;;;;;0.30;0.30;;;8.00;99.90;;;;;;5016347;28;20233;-67
2023/01/12 12:48:31;;;;;;;0.30;0.30;;;7.90;99.90;;;;;;5009358;28;20201;-69
2023/01/12 12:51:17;;;;;;;0.30;0.30;;;8.00;99.60;;;;;;4995457;28;20175;-69
2023/01/12 12:53:46;;;;;;;8.55;0.60;;;7.90;99.50;;;;;;5016423;28;20206;-69
2023/01/12 12:56:15;;;;;;;0.47;0.47;;;8.10;99.60;;;;;;5015926;28;20596;-71
2023/01/12 12:58:41;;;;;;;0.50;0.50;;;8.10;99.40;;;;;;5016241;28;20172;-70
2023/01/12 13:01:18;;;;;;;0.30;0.30;;;8.20;99.10;;;;;;5016516;28;20171;-71
2023/01/12 13:03:49;;;;;;;0.52;0.52;;;8.30;99.00;;;;;;5016358;28;20191;-69
2023/01/12 13:06:43;;;;;;;0.38;0.38;;;8.30;99.00;;;;;;5015954;28;20535;-68
2023/01/12 13:09:11;;;;;;;0.43;0.43;;;8.30;98.60;;;;;;5016306;28;20160;-68
2023/01/12 13:11:59;;;;;;;0.40;0.40;;;8.20;98.50;;;;;;5016347;28;20508;-71
2023/01/12 13:14:27;;;;;;;0.40;0.40;;;8.10;99.10;;;;;;5015891;28;20240;-69
2023/01/12 13:16:54;;;;;;;0.40;0.40;;;8.20;98.90;;;;;;5016000;28;20269;-71
2023/01/12 13:19:44;;;;;;;0.30;0.30;;;8.30;98.80;;;;;;5014348;28;20326;-70
2023/01/12 13:22:25;;;;;;;0.30;0.30;;;8.10;98.70;;;;;;5011291;28;20205;-71
2023/01/12 13:24:52;;;;;;;0.30;0.30;;;8.10;98.80;;;;;;5015226;28;20190;-69
2023/01/12 13:27:58;;;;;;;0.30;0.30;;;8.00;98.90;;;;;;5013752;28;20199;-69
2023/01/12 13:30:30;;;;;;;0.30;0.30;;;8.00;99.00;;;;;;5016056;28;20166;-70
2023/01/12 13:33:22;;;;;;;0.30;0.30;;;7.90;99.00;;;;;;5016165;28;20173;-70
2023/01/12 13:35:48;;;;;;;0.30;0.30;;;7.90;99.20;;;;;;5015412;28;20190;-70
2023/01/12 13:38:32;;;;;;;0.63;0.63;;;8.00;99.30;;;;;;5015789;28;20175;-69
2023/01/12 13:41:13;;;;;;;0.60;0.60;;;8.00;99.40;;;;;;5016013;28;20640;-69
2023/01/12 13:43:57;;;;;;;0.40;0.40;;;8.10;99.60;;;;;;5014000;28;20573;-69
2023/01/12 13:46:55;;;;;;;0.40;0.40;;;8.10;99.10;;;;;;5014994;28;20214;-68
2023/01/12 13:49:31;;;;;;;0.30;0.30;;;8.00;99.20;;;;;;5005940;28;20182;-70
2023/01/12 13:51:58;;;;;;;0.30;0.30;;;7.90;99.10;;;;;;5015197;28;20255;-69
2023/01/12 13:54:24;;;;;;;0.30;0.30;;;7.80;99.80;;;;;;5014884;28;20188;-71